createdAt,value
2017-05-23T00:02:18.981Z,7.14
2017-05-23T00:04:45.681Z,8.00
2017-05-23T00:07:12.377Z,7.98
2017-05-23T00:09:39.109Z,8.04
2017-05-23T00:12:05.806Z,8.28
2017-05-23T00:14:32.484Z,6.94
2017-05-23T00:16:59.212Z,7.92
2017-05-23T00:19:25.891Z,7.40
2017-05-23T00:21:52.626Z,7.62
2017-05-23T00:24:19.406Z,7.24
2017-05-23T00:26:46.088Z,7.68
2017-05-23T00:29:12.765Z,7.60
2017-05-23T00:31:47.227Z,7.98
2017-05-23T00:34:13.926Z,8.16
2017-05-23T00:36:40.672Z,7.98
2017-05-23T00:39:07.352Z,8.20
2017-05-23T00:41:34.041Z,7.04
2017-05-23T00:44:00.942Z,8.62
2017-05-23T00:46:27.634Z,8.42
2017-05-23T00:48:54.330Z,9.94
2017-05-23T00:51:21.086Z,8.04
2017-05-23T00:53:47.789Z,7.46
2017-05-23T00:56:14.480Z,7.20
2017-05-23T00:58:41.210Z,7.84
2017-05-23T01:01:07.894Z,7.96
2017-05-23T01:03:34.613Z,7.70
2017-05-23T01:06:01.346Z,7.28
2017-05-23T01:08:28.255Z,7.76
2017-05-23T01:10:54.965Z,7.90
2017-05-23T01:13:21.706Z,7.94
2017-05-23T01:15:48.462Z,7.86
2017-05-23T01:18:15.148Z,7.84
2017-05-23T01:20:41.878Z,8.26
2017-05-23T01:23:08.565Z,10.40
2017-05-23T01:25:35.249Z,8.72
2017-05-23T01:28:01.972Z,7.86
2017-05-23T01:30:28.638Z,7.92
2017-05-23T01:32:55.329Z,7.50
2017-05-23T01:35:22.070Z,8.18
2017-05-23T01:37:48.781Z,7.80
2017-05-23T01:40:15.501Z,8.30
2017-05-23T01:42:42.222Z,7.16
2017-05-23T01:45:08.895Z,7.60
2017-05-23T01:47:35.570Z,7.92
2017-05-23T01:50:02.306Z,7.70
2017-05-23T01:52:28.994Z,7.38
2017-05-23T01:54:55.743Z,8.36
2017-05-23T01:57:22.502Z,9.36
2017-05-23T01:59:49.291Z,8.10
2017-05-23T02:02:16.042Z,8.54
2017-05-23T02:04:42.781Z,8.30
2017-05-23T02:07:09.467Z,7.94
2017-05-23T02:09:36.197Z,9.08
2017-05-23T02:12:02.921Z,9.88
2017-05-23T02:14:29.614Z,7.06
2017-05-23T02:16:56.362Z,7.98
2017-05-23T02:19:23.073Z,7.80
2017-05-23T02:21:49.891Z,7.12
2017-05-23T02:24:16.714Z,8.32
2017-05-23T02:26:43.401Z,8.90
2017-05-23T02:29:10.107Z,8.76
2017-05-23T02:31:36.840Z,7.92
2017-05-23T02:34:03.538Z,8.04
2017-05-23T02:36:30.262Z,8.20
2017-05-23T02:38:56.956Z,7.88
2017-05-23T02:41:23.696Z,7.54
2017-05-23T02:43:50.417Z,7.30
2017-05-23T02:46:17.114Z,7.82
2017-05-23T02:48:43.834Z,8.10
2017-05-23T02:51:10.565Z,9.56
2017-05-23T02:53:37.249Z,8.84
2017-05-23T02:56:03.931Z,8.60
2017-05-23T02:58:30.667Z,9.02
2017-05-23T03:00:57.353Z,8.88
2017-05-23T03:03:24.057Z,8.32
2017-05-23T03:05:50.829Z,8.22
2017-05-23T03:08:17.538Z,8.88
2017-05-23T03:10:44.223Z,8.68
2017-05-23T03:13:10.936Z,8.84
2017-05-23T03:15:37.657Z,8.18
2017-05-23T03:18:04.370Z,9.82
2017-05-23T03:20:31.069Z,8.96
2017-05-23T03:22:57.798Z,9.42
2017-05-23T03:25:24.484Z,9.52
2017-05-23T03:27:51.173Z,7.62
2017-05-23T03:30:17.958Z,8.78
2017-05-23T03:32:44.644Z,13.00
2017-05-23T03:35:11.374Z,10.00
2017-05-23T03:37:38.066Z,10.64
2017-05-23T03:40:04.746Z,8.76
2017-05-23T03:42:31.499Z,9.86
2017-05-23T03:44:58.185Z,10.78
2017-05-23T03:47:24.909Z,9.22
2017-05-23T03:49:51.650Z,9.26
2017-05-23T03:52:18.402Z,9.10
2017-05-23T03:54:45.083Z,9.58
2017-05-23T03:57:11.769Z,9.08
2017-05-23T03:59:38.489Z,9.46
2017-05-23T04:02:05.166Z,10.04
2017-05-23T04:04:31.916Z,8.60
2017-05-23T04:06:58.606Z,8.82
2017-05-23T04:09:25.314Z,8.34
2017-05-23T04:11:52.118Z,9.72
2017-05-23T04:14:18.845Z,9.46
2017-05-23T04:16:45.570Z,8.68
2017-05-23T04:19:12.293Z,9.96
2017-05-23T04:21:38.973Z,8.36
2017-05-23T04:24:05.662Z,9.22
2017-05-23T04:26:32.385Z,10.88
2017-05-23T04:28:59.117Z,8.98
2017-05-23T04:31:25.801Z,9.66
2017-05-23T04:33:52.615Z,9.60
2017-05-23T04:36:19.327Z,10.24
2017-05-23T04:38:46.013Z,9.94
2017-05-23T04:41:12.754Z,9.14
2017-05-23T04:43:39.433Z,10.10
2017-05-23T04:46:06.145Z,9.04
2017-05-23T04:48:32.861Z,12.08
2017-05-23T04:50:59.555Z,8.98
2017-05-23T04:53:26.281Z,9.24
2017-05-23T04:55:52.989Z,9.32
2017-05-23T04:58:19.682Z,8.64
2017-05-23T05:00:46.405Z,10.10
2017-05-23T05:03:13.090Z,10.22
2017-05-23T05:05:39.827Z,9.48
2017-05-23T05:08:06.522Z,9.18
2017-05-23T05:10:33.286Z,9.54
2017-05-23T05:12:59.982Z,10.56
2017-05-23T05:15:26.749Z,9.38
2017-05-23T05:17:53.518Z,10.50
2017-05-23T05:20:20.224Z,10.64
2017-05-23T05:22:46.918Z,9.42
2017-05-23T05:25:13.637Z,9.52
2017-05-23T05:27:40.320Z,10.32
2017-05-23T05:30:14.101Z,10.92
2017-05-23T05:32:40.800Z,13.02
2017-05-23T05:35:07.489Z,12.46
2017-05-23T05:37:34.293Z,11.24
2017-05-23T05:40:01.042Z,11.72
2017-05-23T05:42:27.913Z,10.48
2017-05-23T05:44:54.649Z,10.70
2017-05-23T05:47:21.354Z,10.62
2017-05-23T05:49:48.085Z,10.68
2017-05-23T05:52:14.769Z,14.68
2017-05-23T05:54:41.462Z,10.76
2017-05-23T05:57:08.180Z,10.12
2017-05-23T05:59:34.900Z,11.84
2017-05-23T06:02:01.937Z,11.92
2017-05-23T06:04:28.623Z,10.92
2017-05-23T06:06:55.337Z,11.94
2017-05-23T06:09:22.111Z,11.22
2017-05-23T06:11:48.809Z,13.06
2017-05-23T06:14:21.681Z,10.98
2017-05-23T06:16:48.453Z,10.12
2017-05-23T06:19:15.137Z,12.18
2017-05-23T06:21:41.837Z,11.44
2017-05-23T06:24:08.568Z,11.12
2017-05-23T06:26:35.263Z,10.20
2017-05-23T06:29:01.984Z,10.76
2017-05-23T06:31:28.705Z,11.74
2017-05-23T06:33:55.423Z,11.06
2017-05-23T06:36:22.156Z,13.38
2017-05-23T06:38:48.850Z,11.74
2017-05-23T06:41:15.561Z,12.52
2017-05-23T06:43:42.274Z,11.48
2017-05-23T06:46:08.993Z,14.42
2017-05-23T06:48:35.673Z,9.94
2017-05-23T06:51:02.397Z,11.62
2017-05-23T06:53:29.081Z,12.40
2017-05-23T06:55:55.825Z,10.04
2017-05-23T06:58:22.518Z,11.14
2017-05-23T07:00:49.229Z,9.60
2017-05-23T07:03:15.949Z,10.34
2017-05-23T07:05:42.631Z,12.16
2017-05-23T07:08:09.354Z,9.80
2017-05-23T07:10:36.082Z,9.36
2017-05-23T07:13:02.759Z,9.82
2017-05-23T07:15:29.473Z,11.04
2017-05-23T07:17:56.233Z,9.96
2017-05-23T07:20:23.008Z,11.78
2017-05-23T07:22:49.691Z,11.06
2017-05-23T07:25:16.398Z,9.30
2017-05-23T07:27:43.133Z,9.06
2017-05-23T07:30:09.817Z,13.24
2017-05-23T07:32:36.502Z,7.82
2017-05-23T07:35:03.220Z,12.48
2017-05-23T07:37:29.902Z,9.90
2017-05-23T07:39:56.593Z,8.96
2017-05-23T07:42:23.330Z,10.92
2017-05-23T07:44:50.897Z,14.16
2017-05-23T07:47:17.630Z,9.36
2017-05-23T07:49:44.339Z,8.90
2017-05-23T07:52:11.026Z,8.04
2017-05-23T07:54:37.754Z,11.50
2017-05-23T07:57:04.457Z,11.18
2017-05-23T07:59:31.146Z,9.74
2017-05-23T08:01:57.878Z,7.48
2017-05-23T08:04:24.581Z,10.38
2017-05-23T08:06:51.302Z,7.94
2017-05-23T08:09:17.990Z,7.64
2017-05-23T08:11:44.730Z,8.28
2017-05-23T08:14:11.413Z,10.88
2017-05-23T08:16:38.098Z,7.86
2017-05-23T08:19:04.865Z,6.82
2017-05-23T08:21:31.557Z,7.08
2017-05-23T08:23:58.289Z,6.76
2017-05-23T08:26:25.005Z,6.66
2017-05-23T08:28:51.725Z,6.48
2017-05-23T08:31:18.423Z,7.18
2017-05-23T08:33:45.142Z,8.00
2017-05-23T08:36:11.829Z,5.98
2017-05-23T08:38:38.542Z,5.26
2017-05-23T08:41:05.266Z,6.18
2017-05-23T08:43:31.987Z,5.10
2017-05-23T08:45:58.750Z,6.02
2017-05-23T08:48:25.485Z,7.30
2017-05-23T08:50:52.192Z,5.04
2017-05-23T08:53:18.910Z,5.86
2017-05-23T08:55:45.605Z,6.04
2017-05-23T08:58:12.369Z,5.98
2017-05-23T09:00:39.081Z,7.28
2017-05-23T09:03:05.765Z,6.70
2017-05-23T09:05:32.489Z,7.58
2017-05-23T09:07:59.213Z,4.96
2017-05-23T09:10:25.962Z,5.64
2017-05-23T09:12:52.667Z,6.92
2017-05-23T09:15:19.369Z,5.56
2017-05-23T09:17:46.117Z,6.84
2017-05-23T09:20:12.798Z,7.46
2017-05-23T09:22:39.541Z,5.28
2017-05-23T09:25:12.425Z,5.98
2017-05-23T09:27:43.157Z,5.32
2017-05-23T09:30:09.882Z,7.02
2017-05-23T09:32:36.566Z,5.22
2017-05-23T09:35:03.293Z,4.90
2017-05-23T09:37:29.973Z,4.84
2017-05-23T09:39:56.715Z,5.36
2017-05-23T09:42:23.426Z,5.36
2017-05-23T09:44:50.478Z,5.30
2017-05-23T09:47:17.174Z,5.30
2017-05-23T09:49:43.871Z,5.98
2017-05-23T09:52:10.589Z,5.36
2017-05-23T09:54:37.274Z,5.12
2017-05-23T09:57:04.021Z,5.26
2017-05-23T09:59:30.707Z,5.66
2017-05-23T10:01:57.417Z,5.72
2017-05-23T10:04:24.161Z,6.36
2017-05-23T10:06:50.849Z,5.54
2017-05-23T10:09:17.533Z,5.10
2017-05-23T10:11:44.263Z,4.62
2017-05-23T10:14:10.946Z,5.06
2017-05-23T10:16:37.657Z,5.28
2017-05-23T10:19:04.415Z,5.56
2017-05-23T10:21:31.129Z,7.62
2017-05-23T10:23:57.839Z,5.88
2017-05-23T10:26:24.567Z,6.10
2017-05-23T10:28:51.290Z,5.86
2017-05-23T10:31:18.010Z,4.62
2017-05-23T10:33:44.694Z,6.52
2017-05-23T10:36:11.434Z,6.32
2017-05-23T10:38:38.115Z,5.52
2017-05-23T10:41:04.798Z,4.96
2017-05-23T10:43:31.538Z,5.46
2017-05-23T10:45:58.237Z,5.40
2017-05-23T10:48:24.934Z,5.52
2017-05-23T10:50:51.703Z,5.46
2017-05-23T10:53:18.394Z,5.20
2017-05-23T10:55:45.081Z,6.66
2017-05-23T10:58:11.808Z,5.22
2017-05-23T11:00:38.493Z,5.04
2017-05-23T11:03:05.233Z,6.24
2017-05-23T11:05:31.922Z,5.22
2017-05-23T11:07:58.609Z,5.76
2017-05-23T11:10:25.353Z,5.68
2017-05-23T11:12:52.053Z,5.04
2017-05-23T11:15:18.786Z,7.16
2017-05-23T11:17:45.505Z,6.86
2017-05-23T11:20:12.193Z,7.12
2017-05-23T11:22:38.905Z,6.94
2017-05-23T11:25:05.622Z,6.28
2017-05-23T11:27:32.350Z,4.86
2017-05-23T11:29:59.043Z,6.42
2017-05-23T11:32:25.746Z,8.94
2017-05-23T11:34:52.493Z,5.74
2017-05-23T11:37:19.187Z,4.88
2017-05-23T11:39:45.886Z,5.64
2017-05-23T11:42:12.609Z,5.04
2017-05-23T11:44:39.301Z,6.70
2017-05-23T11:47:06.000Z,6.06
2017-05-23T11:49:32.713Z,5.88
2017-05-23T11:51:59.458Z,5.72
2017-05-23T11:54:26.164Z,5.26
2017-05-23T11:56:52.866Z,5.26
2017-05-23T11:59:19.585Z,5.16
2017-05-23T12:01:46.279Z,4.96
2017-05-23T12:04:13.005Z,4.80
2017-05-23T12:06:39.688Z,4.70
2017-05-23T12:09:06.421Z,5.22
2017-05-23T12:11:33.129Z,5.38
2017-05-23T12:13:59.821Z,4.52
2017-05-23T12:16:26.590Z,5.06
2017-05-23T12:18:53.322Z,5.00
2017-05-23T12:21:20.069Z,4.86
2017-05-23T12:23:46.755Z,5.34
2017-05-23T12:26:13.446Z,7.02
2017-05-23T12:28:40.162Z,5.22
2017-05-23T12:31:06.853Z,5.46
2017-05-23T12:33:33.593Z,4.58
2017-05-23T12:36:00.286Z,5.78
2017-05-23T12:38:27.010Z,4.48
2017-05-23T12:40:53.761Z,4.38
2017-05-23T12:43:20.459Z,5.08
2017-05-23T12:45:47.193Z,4.36
2017-05-23T12:48:13.885Z,5.40
2017-05-23T12:50:40.605Z,4.12
2017-05-23T12:53:07.329Z,4.52
2017-05-23T12:55:34.017Z,4.16
2017-05-23T12:58:00.750Z,4.14
2017-05-23T13:00:27.449Z,4.10
2017-05-23T13:02:54.158Z,4.02
2017-05-23T13:05:20.898Z,3.60
2017-05-23T13:07:47.837Z,3.98
2017-05-23T13:10:14.576Z,4.32
2017-05-23T13:12:41.286Z,4.42
2017-05-23T13:15:07.974Z,3.74
2017-05-23T13:17:34.692Z,4.90
2017-05-23T13:20:01.415Z,8.46
2017-05-23T13:22:28.449Z,4.70
2017-05-23T13:24:55.148Z,5.08
2017-05-23T13:27:21.892Z,4.86
2017-05-23T13:29:48.633Z,5.12
2017-05-23T13:32:15.321Z,5.32
2017-05-23T13:34:42.018Z,4.92
2017-05-23T13:37:08.742Z,6.36
2017-05-23T13:39:35.452Z,4.74
2017-05-23T13:42:02.143Z,6.26
2017-05-23T13:44:28.869Z,9.86
2017-05-23T13:46:55.599Z,6.48
2017-05-23T13:49:22.306Z,5.32
2017-05-23T13:51:49.040Z,5.70
2017-05-23T13:54:15.722Z,5.48
2017-05-23T13:56:42.409Z,5.30
2017-05-23T13:59:09.142Z,5.80
2017-05-23T14:01:35.865Z,5.78
2017-05-23T14:04:02.600Z,6.06
2017-05-23T14:06:29.289Z,6.20
2017-05-23T14:08:56.527Z,6.22
2017-05-23T14:11:23.305Z,6.40
2017-05-23T14:13:51.431Z,6.24
2017-05-23T14:16:18.149Z,5.88
2017-05-23T14:18:45.540Z,6.42
2017-05-23T14:21:14.077Z,5.84
2017-05-23T14:23:41.433Z,5.84
2017-05-23T14:26:08.251Z,6.24
2017-05-23T14:28:34.934Z,6.84
2017-05-23T14:31:01.618Z,5.82
2017-05-23T14:33:28.377Z,6.46
2017-05-23T14:35:55.126Z,6.66
2017-05-23T14:38:21.991Z,7.82
2017-05-23T14:40:48.722Z,6.88
2017-05-23T14:43:15.753Z,5.84
2017-05-23T14:45:42.485Z,7.68
2017-05-23T14:48:09.166Z,6.44
2017-05-23T14:50:35.848Z,6.54
2017-05-23T14:53:02.569Z,6.96
2017-05-23T14:55:29.461Z,6.48
2017-05-23T14:57:56.836Z,6.08
2017-05-23T15:00:23.538Z,7.58
2017-05-23T15:02:50.250Z,6.00
2017-05-23T15:05:16.994Z,7.24
2017-05-23T15:07:43.691Z,7.00
2017-05-23T15:10:10.421Z,6.96
2017-05-23T15:12:37.165Z,9.10
2017-05-23T15:15:03.893Z,7.24
2017-05-23T15:17:30.590Z,7.46
2017-05-23T15:19:57.332Z,7.50
2017-05-23T15:22:24.074Z,6.70
2017-05-23T15:24:50.789Z,7.66
2017-05-23T15:27:20.888Z,6.68
2017-05-23T15:29:47.574Z,7.04
2017-05-23T15:32:14.277Z,6.84
2017-05-23T15:34:41.054Z,6.10
2017-05-23T15:37:07.745Z,6.24
2017-05-23T15:39:34.428Z,6.52
2017-05-23T15:42:01.514Z,6.80
2017-05-23T15:44:28.196Z,6.34
2017-05-23T15:46:54.881Z,5.88
2017-05-23T15:49:21.609Z,7.20
2017-05-23T15:51:49.353Z,6.20
2017-05-23T15:54:16.094Z,6.68
2017-05-23T15:56:42.799Z,6.14
2017-05-23T15:59:09.481Z,5.82
2017-05-23T16:01:36.213Z,5.74
2017-05-23T16:04:02.893Z,6.40
2017-05-23T16:06:29.579Z,6.22
2017-05-23T16:08:56.306Z,5.96
2017-05-23T16:11:23.045Z,5.92
2017-05-23T16:13:49.733Z,5.46
2017-05-23T16:16:16.429Z,6.04
2017-05-23T16:18:43.161Z,5.08
2017-05-23T16:21:09.890Z,7.86
2017-05-23T16:23:36.627Z,5.84
2017-05-23T16:26:03.312Z,5.86
2017-05-23T16:28:29.999Z,5.94
2017-05-23T16:30:56.734Z,6.06
2017-05-23T16:33:23.421Z,5.72
2017-05-23T16:35:50.109Z,6.40
2017-05-23T16:38:16.851Z,5.06
2017-05-23T16:40:43.630Z,6.06
2017-05-23T16:43:10.364Z,11.40
2017-05-23T16:45:37.097Z,6.22
2017-05-23T16:48:03.785Z,5.60
2017-05-23T16:50:30.524Z,5.32
2017-05-23T16:52:57.209Z,6.04
2017-05-23T16:55:23.893Z,6.18
2017-05-23T16:57:50.630Z,6.28
2017-05-23T17:00:17.321Z,5.58
2017-05-23T17:02:44.021Z,8.56
2017-05-23T17:05:10.818Z,5.36
2017-05-23T17:07:37.506Z,5.38
2017-05-23T17:10:04.198Z,6.26
2017-05-23T17:12:30.926Z,5.38
2017-05-23T17:17:31.065Z,6.46
2017-05-23T17:19:57.793Z,7.78
2017-05-23T17:22:24.544Z,5.38
2017-05-23T17:24:51.294Z,5.92
2017-05-23T17:27:17.978Z,6.18
2017-05-23T17:29:44.682Z,5.80
2017-05-23T17:32:11.438Z,5.80
2017-05-23T17:34:38.122Z,5.80
2017-05-23T17:37:04.818Z,5.78
2017-05-23T17:39:31.549Z,5.44
2017-05-23T17:41:58.242Z,5.38
2017-05-23T17:44:25.026Z,5.80
2017-05-23T17:46:51.721Z,5.22
2017-05-23T17:49:18.402Z,5.90
2017-05-23T17:51:45.126Z,5.84
2017-05-23T17:54:11.834Z,5.84
2017-05-23T17:56:38.562Z,5.92
2017-05-23T17:59:05.249Z,5.98
2017-05-23T18:01:31.969Z,5.06
2017-05-23T18:03:58.657Z,6.32
2017-05-23T18:06:25.410Z,6.46
2017-05-23T18:08:52.094Z,5.42
2017-05-23T18:11:18.769Z,5.72
2017-05-23T18:13:45.497Z,6.12
2017-05-23T18:16:12.206Z,7.56
2017-05-23T18:18:38.898Z,7.64
2017-05-23T18:21:05.670Z,6.08
2017-05-23T18:23:32.362Z,6.12
2017-05-23T18:25:59.085Z,5.92
2017-05-23T18:28:25.796Z,5.32
2017-05-23T18:30:52.529Z,6.16
2017-05-23T18:33:19.211Z,7.30
2017-05-23T18:35:45.909Z,6.38
2017-05-23T18:38:12.685Z,6.12
2017-05-23T18:40:39.373Z,6.10
2017-05-23T18:43:06.100Z,6.26
2017-05-23T18:45:32.785Z,6.70
2017-05-23T18:47:59.479Z,7.66
2017-05-23T18:50:26.213Z,6.22
2017-05-23T18:52:52.897Z,5.52
2017-05-23T18:55:19.586Z,6.22
2017-05-23T18:57:46.338Z,6.86
2017-05-23T19:00:13.038Z,8.94
2017-05-23T19:02:39.729Z,8.40
2017-05-23T19:05:06.468Z,6.94
2017-05-23T19:07:33.157Z,6.96
2017-05-23T19:09:59.890Z,6.88
2017-05-23T19:12:26.574Z,7.04
2017-05-23T19:14:53.270Z,6.82
2017-05-23T19:17:19.997Z,6.76
2017-05-23T19:19:46.722Z,7.20
2017-05-23T19:22:13.422Z,6.98
2017-05-23T19:24:40.152Z,7.84
2017-05-23T19:27:06.881Z,7.26
2017-05-23T19:29:33.605Z,7.66
2017-05-23T19:32:00.330Z,7.64
2017-05-23T19:34:27.014Z,8.24
2017-05-23T19:36:53.752Z,7.30
2017-05-23T19:39:21.677Z,7.88
2017-05-23T19:41:48.364Z,6.86
2017-05-23T19:44:15.106Z,7.78
2017-05-23T19:46:41.854Z,7.34
2017-05-23T19:49:08.545Z,8.70
2017-05-23T19:51:35.266Z,7.22
2017-05-23T19:54:01.965Z,10.78
2017-05-23T19:56:28.693Z,13.64
2017-05-23T19:58:55.418Z,8.54
2017-05-23T20:01:22.157Z,8.56
2017-05-23T20:03:48.838Z,8.72
2017-05-23T20:06:15.541Z,10.22
2017-05-23T20:08:42.311Z,7.86
2017-05-23T20:11:09.006Z,7.78
2017-05-23T20:13:35.699Z,7.30
2017-05-23T20:16:02.435Z,8.38
2017-05-23T20:18:29.504Z,8.24
2017-05-23T20:20:56.195Z,11.74
2017-05-23T20:23:22.950Z,7.98
2017-05-23T20:25:49.634Z,7.64
2017-05-23T20:28:16.333Z,9.40
2017-05-23T20:30:43.136Z,7.18
2017-05-23T20:33:09.814Z,7.34
2017-05-23T20:35:36.502Z,7.16
2017-05-23T20:38:03.225Z,10.56
2017-05-23T20:40:30.004Z,6.60
2017-05-23T20:42:56.685Z,9.06
2017-05-23T20:45:23.421Z,8.20
2017-05-23T20:47:50.113Z,17.26
2017-05-23T20:50:16.081Z,8.90
2017-05-23T20:52:43.116Z,7.70
2017-05-23T20:55:09.809Z,6.74
2017-05-23T20:57:36.534Z,7.44
2017-05-23T21:00:03.266Z,6.98
2017-05-23T21:02:30.001Z,6.72
2017-05-23T21:04:56.694Z,8.26
2017-05-23T21:07:23.433Z,7.74
2017-05-23T21:09:50.126Z,6.76
2017-05-23T21:12:16.846Z,9.10
2017-05-23T21:14:43.593Z,7.06
2017-05-23T21:17:10.348Z,7.90
2017-05-23T21:19:37.091Z,8.08
2017-05-23T21:22:03.821Z,7.00
2017-05-23T21:24:30.505Z,8.42
2017-05-23T21:26:57.217Z,8.42
2017-05-23T21:29:23.898Z,8.20
2017-05-23T21:31:50.618Z,7.50
2017-05-23T21:34:17.305Z,7.64
2017-05-23T21:36:44.006Z,7.12
2017-05-23T21:39:10.780Z,9.24
2017-05-23T21:41:37.471Z,7.78
2017-05-23T21:44:03.410Z,6.86
2017-05-23T21:46:30.141Z,6.72
2017-05-23T21:48:56.829Z,8.10
2017-05-23T21:51:23.565Z,8.04
2017-05-23T21:53:50.253Z,8.52
2017-05-23T21:56:16.950Z,8.56
2017-05-23T21:58:43.690Z,8.28
2017-05-23T22:01:10.470Z,8.16
2017-05-23T22:03:43.431Z,7.54
2017-05-23T22:06:10.163Z,8.34
2017-05-23T22:08:36.858Z,7.96
2017-05-23T22:11:03.545Z,7.62
2017-05-23T22:13:30.275Z,8.00
2017-05-23T22:15:56.968Z,9.10
2017-05-23T22:18:23.650Z,8.88
2017-05-23T22:20:50.385Z,9.24
2017-05-23T22:23:17.113Z,8.78
2017-05-23T22:25:43.823Z,12.76
2017-05-23T22:28:10.583Z,10.86
2017-05-23T22:30:44.246Z,12.36
2017-05-23T22:33:11.012Z,13.32
2017-05-23T22:35:37.693Z,12.58
2017-05-23T22:38:04.427Z,14.68
2017-05-23T22:40:31.166Z,13.12
2017-05-23T22:42:57.873Z,14.84
2017-05-23T22:45:24.553Z,13.50
2017-05-23T22:47:51.277Z,15.04
2017-05-23T22:50:17.973Z,14.02
2017-05-23T22:52:44.722Z,15.10
2017-05-23T22:55:11.433Z,14.90
2017-05-23T22:57:38.121Z,15.08
2017-05-23T23:00:04.857Z,15.38
2017-05-23T23:02:31.543Z,15.98
2017-05-23T23:04:58.281Z,16.34
2017-05-23T23:07:25.002Z,17.72
2017-05-23T23:09:51.683Z,17.04
2017-05-23T23:12:18.418Z,17.32
2017-05-23T23:14:45.118Z,16.56
2017-05-23T23:17:11.813Z,17.02
2017-05-23T23:19:38.551Z,17.32
2017-05-23T23:22:05.273Z,19.02
2017-05-23T23:24:31.967Z,18.44
2017-05-23T23:26:58.711Z,23.14
2017-05-23T23:29:25.391Z,24.88
2017-05-23T23:31:52.126Z,24.60
2017-05-23T23:34:18.843Z,25.46
2017-05-23T23:36:45.530Z,24.58
2017-05-23T23:39:12.271Z,26.72
2017-05-23T23:41:38.957Z,26.16
2017-05-23T23:44:05.661Z,26.18
2017-05-23T23:46:32.389Z,27.74
2017-05-23T23:48:59.078Z,28.88
2017-05-23T23:51:25.762Z,25.84
2017-05-23T23:53:52.497Z,26.72
2017-05-23T23:56:19.181Z,27.18
2017-05-23T23:58:45.882Z,28.34
